createdAt,value
2019-05-25T08:58:06.902Z,98435.19
2019-05-25T09:00:38.646Z,98427.56
2019-05-25T09:03:10.529Z,98427.56
2019-05-25T09:05:42.328Z,98426.66
2019-05-25T09:08:14.117Z,98426.72
2019-05-25T09:10:45.637Z,98418.48
2019-05-25T09:13:17.385Z,98413.06
2019-05-25T09:15:49.683Z,98407.36
2019-05-25T09:18:22.080Z,98407.36
2019-05-25T09:20:53.960Z,98408.96
2019-05-25T09:23:26.066Z,98409.13
2019-05-25T09:25:57.707Z,98399.58
2019-05-25T09:28:29.581Z,98399.58
2019-05-25T09:31:01.616Z,98401.22
2019-05-25T09:33:34.842Z,98394.71
2019-05-25T09:36:08.384Z,98394.71
2019-05-25T09:38:43.407Z,98398.56
2019-05-25T09:41:18.759Z,98386.98
2019-05-25T09:43:51.730Z,98386.98
2019-05-25T09:46:23.660Z,98376.75
2019-05-25T09:48:55.354Z,98376.75
2019-05-25T09:51:27.112Z,98382.35
2019-05-25T09:53:59.651Z,98376.00
2019-05-25T09:56:31.506Z,98376.92
2019-05-25T09:59:03.206Z,98366.45
2019-05-25T10:01:34.839Z,98369.19
2019-05-25T10:04:06.648Z,98369.19
2019-05-25T10:06:38.526Z,98358.07
2019-05-25T10:09:10.637Z,98358.07
2019-05-25T10:11:42.659Z,98356.29
2019-05-25T10:14:15.997Z,98356.15
2019-05-25T10:16:47.471Z,98351.28
2019-05-25T10:19:19.530Z,98347.81
2019-05-25T10:21:51.250Z,98341.86
2019-05-25T10:24:23.525Z,98341.86
2019-05-25T10:26:55.873Z,98331.34
2019-05-25T10:29:36.630Z,98331.34
2019-05-25T10:32:01.395Z,98334.97
2019-05-25T10:34:34.729Z,98334.97
2019-05-25T10:37:06.752Z,98332.70
2019-05-25T10:39:38.804Z,98325.54
2019-05-25T10:42:10.621Z,98317.80
2019-05-25T10:44:42.487Z,98317.30
2019-05-25T10:47:14.090Z,98311.58
2019-05-25T10:49:46.007Z,98305.59
2019-05-25T10:52:17.721Z,98305.59
2019-05-25T10:54:49.577Z,98300.16
2019-05-25T10:57:21.320Z,98304.09
2019-05-25T10:59:53.512Z,98303.48
2019-05-25T11:02:24.880Z,98292.72
2019-05-25T11:04:56.629Z,98292.72
2019-05-25T11:07:28.470Z,98293.86
2019-05-25T11:09:59.971Z,98295.00
2019-05-25T11:12:31.323Z,98287.16
2019-05-25T11:15:03.140Z,98287.16
2019-05-25T11:17:34.812Z,98290.53
2019-05-25T11:20:06.567Z,98290.53
2019-05-25T11:22:37.963Z,98287.53
2019-05-25T11:25:11.356Z,98287.53
2019-05-25T11:27:43.214Z,98279.75
2019-05-25T11:30:15.228Z,98283.94
2019-05-25T11:32:46.905Z,98286.95
2019-05-25T11:35:20.738Z,98281.09
2019-05-25T11:37:52.989Z,98290.25
2019-05-25T11:40:27.075Z,98290.25
2019-05-25T11:42:58.720Z,98283.22
2019-05-25T11:45:30.609Z,98280.31
2019-05-25T11:48:02.170Z,98284.70
2019-05-25T11:50:33.930Z,98284.70
2019-05-25T11:53:06.090Z,98283.12
2019-05-25T11:55:38.174Z,98283.12
2019-05-25T11:58:10.101Z,98280.53
2019-05-25T12:00:41.915Z,98280.53
2019-05-25T12:03:13.655Z,98285.31
2019-05-25T12:05:45.227Z,98282.53
2019-05-25T12:08:17.184Z,98279.70
2019-05-25T12:10:50.937Z,98279.70
2019-05-25T12:13:22.440Z,98283.97
2019-05-25T12:15:55.925Z,98283.70
2019-05-25T12:18:27.418Z,98288.47
2019-05-25T12:20:58.823Z,98286.22
2019-05-25T12:23:30.462Z,98286.22
2019-05-25T12:26:01.953Z,98290.63
2019-05-25T12:28:34.069Z,98290.63
2019-05-25T12:31:05.626Z,98287.38
2019-05-25T12:33:37.243Z,98283.61
2019-05-25T12:36:09.784Z,98288.59
2019-05-25T12:38:41.200Z,98288.59
2019-05-25T12:41:12.786Z,98295.31
2019-05-25T12:43:44.642Z,98290.29
2019-05-25T12:46:16.239Z,98291.14
2019-05-25T12:48:47.881Z,98291.14
2019-05-25T12:51:19.451Z,98297.02
2019-05-25T12:53:52.196Z,98297.02
2019-05-25T12:56:23.816Z,98298.44
2019-05-25T12:58:56.776Z,98298.52
2019-05-25T13:01:31.193Z,98302.16
2019-05-25T13:04:02.684Z,98304.19
2019-05-25T13:06:34.494Z,98302.37
2019-05-25T13:09:08.008Z,98302.37
2019-05-25T13:11:39.511Z,98309.17
2019-05-25T13:14:14.471Z,98311.70
2019-05-25T13:16:44.159Z,98306.66
2019-05-25T13:19:15.521Z,98306.66
2019-05-25T13:21:47.031Z,98305.66
2019-05-25T13:24:18.385Z,98310.45
2019-05-25T13:26:49.954Z,98308.07
2019-05-25T13:29:21.659Z,98308.07
2019-05-25T13:31:56.303Z,98309.80
2019-05-25T13:34:27.814Z,98305.00
2019-05-25T13:37:01.668Z,98306.86
2019-05-25T13:39:32.598Z,98309.81
2019-05-25T13:42:03.933Z,98309.75
2019-05-25T13:44:35.447Z,98314.20
2019-05-25T13:47:06.849Z,98310.70
2019-05-25T13:49:38.419Z,98310.70
2019-05-25T13:52:10.149Z,98309.16
2019-05-25T13:54:41.886Z,98318.72
2019-05-25T13:57:13.515Z,98318.72
2019-05-25T13:59:45.090Z,98322.58
2019-05-25T14:02:16.407Z,98322.58
2019-05-25T14:04:48.172Z,98317.31
2019-05-25T14:07:19.901Z,98316.73
2019-05-25T14:09:51.948Z,98317.36
2019-05-25T14:12:23.706Z,98317.36
2019-05-25T14:14:55.277Z,98320.06
2019-05-25T14:17:26.804Z,98320.06
2019-05-25T14:19:58.485Z,98321.27
2019-05-25T14:22:29.914Z,98321.27
2019-05-25T14:25:01.409Z,98322.91
2019-05-25T14:27:32.962Z,98321.71
2019-05-25T14:30:04.819Z,98321.30
2019-05-25T14:32:37.728Z,98318.92
2019-05-25T14:35:09.508Z,98318.92
2019-05-25T14:37:41.340Z,98320.82
2019-05-25T14:40:13.132Z,98320.82
2019-05-25T14:42:44.730Z,98334.58
2019-05-25T14:45:16.489Z,98331.56
2019-05-25T14:47:48.264Z,98336.82
2019-05-25T14:50:20.197Z,98343.33
2019-05-25T14:52:51.905Z,98343.33
2019-05-25T14:55:23.270Z,98342.77
2019-05-25T14:57:56.454Z,98341.03
2019-05-25T15:00:28.156Z,98349.91
2019-05-25T15:02:59.809Z,98350.42
2019-05-25T15:05:31.528Z,98348.80
2019-05-25T15:08:03.617Z,98350.67
2019-05-25T15:10:35.335Z,98349.33
2019-05-25T15:13:07.049Z,98349.33
2019-05-25T15:15:38.512Z,98349.09
2019-05-25T15:18:10.321Z,98349.09
2019-05-25T15:20:41.893Z,98354.58
2019-05-25T15:23:13.388Z,98362.13
2019-05-25T15:25:44.971Z,98362.13
2019-05-25T15:28:16.543Z,98366.05
2019-05-25T15:30:48.292Z,98373.26
2019-05-25T15:33:20.046Z,98371.10
2019-05-25T15:35:52.214Z,98371.10
2019-05-25T15:38:23.506Z,98376.38
2019-05-25T15:40:57.914Z,98377.99
2019-05-25T15:43:29.243Z,98382.25
2019-05-25T15:46:00.740Z,98379.97
2019-05-25T15:48:32.482Z,98379.97
2019-05-25T15:51:04.160Z,98381.20
2019-05-25T15:53:35.551Z,98381.20
2019-05-25T15:56:06.926Z,98378.84
2019-05-25T15:58:38.612Z,98384.84
2019-05-25T16:01:10.167Z,98384.84
2019-05-25T16:03:41.719Z,98389.58
2019-05-25T16:06:13.184Z,98392.16
2019-05-25T16:08:44.600Z,98386.70
2019-05-25T16:11:16.403Z,98389.17
2019-05-25T16:13:48.217Z,98391.34
2019-05-25T16:16:20.038Z,98382.16
2019-05-25T16:18:51.543Z,98383.56
2019-05-25T16:21:22.821Z,98383.56
2019-05-25T16:23:55.096Z,98388.20
2019-05-25T16:26:27.379Z,98385.80
2019-05-25T16:28:58.983Z,98391.59
2019-05-25T16:31:30.603Z,98391.59
2019-05-25T16:34:01.979Z,98386.75
2019-05-25T16:36:33.724Z,98390.89
2019-05-25T16:39:06.232Z,98390.89
2019-05-25T16:41:37.760Z,98386.94
2019-05-25T16:44:09.558Z,98393.45
2019-05-25T16:46:40.990Z,98395.41
2019-05-25T16:49:13.031Z,98393.33
2019-05-25T16:51:44.513Z,98400.77
2019-05-25T16:54:16.052Z,98395.47
2019-05-25T16:56:48.310Z,98395.47
2019-05-25T16:59:19.911Z,98396.50
2019-05-25T17:01:51.249Z,98400.77
2019-05-25T17:04:22.613Z,98395.81
2019-05-25T17:06:54.030Z,98400.00
2019-05-25T17:09:25.844Z,98398.50
2019-05-25T17:11:57.582Z,98403.27
2019-05-25T17:14:30.297Z,98403.27
2019-05-25T17:17:01.879Z,98401.91
2019-05-25T17:19:33.606Z,98401.91
2019-05-25T17:22:05.395Z,98399.27
2019-05-25T17:24:37.566Z,98395.61
2019-05-25T17:27:09.532Z,98389.27
2019-05-25T17:29:41.378Z,98402.44
2019-05-25T17:32:12.847Z,98401.64
2019-05-25T17:34:44.673Z,98397.09
2019-05-25T17:37:16.549Z,98393.20
2019-05-25T17:39:47.903Z,98394.13
2019-05-25T17:42:19.500Z,98394.13
2019-05-25T17:44:51.100Z,98389.91
2019-05-25T17:47:22.968Z,98393.66
2019-05-25T17:49:54.740Z,98393.66
2019-05-25T17:52:26.771Z,98386.88
2019-05-25T17:54:58.203Z,98385.00
2019-05-25T17:57:29.955Z,98385.00
2019-05-25T18:00:01.609Z,98373.34
2019-05-25T18:02:32.909Z,98359.96
2019-05-25T18:05:04.311Z,98359.96
2019-05-25T18:07:35.950Z,98363.14
2019-05-25T18:10:08.127Z,98362.56
2019-05-25T18:12:39.934Z,98362.56
2019-05-25T18:15:11.696Z,98363.58
2019-05-25T18:17:43.365Z,98358.88
2019-05-25T18:20:15.128Z,98361.66
2019-05-25T18:22:46.390Z,98361.66
2019-05-25T18:25:18.760Z,98350.64
2019-05-25T18:27:50.079Z,98356.98
2019-05-25T18:30:23.075Z,98357.47
2019-05-25T18:32:54.816Z,98357.79
2019-05-25T18:35:26.723Z,98357.79
2019-05-25T18:37:58.267Z,98345.95
2019-05-25T18:40:30.097Z,98341.45
2019-05-25T18:43:01.494Z,98341.45
2019-05-25T18:45:33.021Z,98343.94
2019-05-25T18:48:04.625Z,98339.29
2019-05-25T18:50:36.698Z,98335.59
2019-05-25T18:53:08.151Z,98328.11
2019-05-25T18:55:39.955Z,98324.33
2019-05-25T18:58:11.501Z,98327.35
2019-05-25T19:00:42.909Z,98327.35
2019-05-25T19:03:14.699Z,98317.23
2019-05-25T19:05:46.217Z,98317.23
2019-05-25T19:08:17.723Z,98314.30
2019-05-25T19:10:48.958Z,98316.21
2019-05-25T19:13:20.619Z,98307.27
2019-05-25T19:15:52.075Z,98304.62
2019-05-25T19:18:23.800Z,98313.12
2019-05-25T19:20:55.234Z,98306.05
2019-05-25T19:23:27.873Z,98301.50
2019-05-25T19:25:59.870Z,98303.48
2019-05-25T19:28:32.156Z,98301.92
2019-05-25T19:31:03.783Z,98294.53
2019-05-25T19:33:35.431Z,98290.69
2019-05-25T19:36:07.452Z,98284.25
2019-05-25T19:38:38.766Z,98282.69
2019-05-25T19:41:10.689Z,98279.13
2019-05-25T19:43:42.105Z,98279.13
2019-05-25T19:46:13.938Z,98282.03
2019-05-25T19:48:45.518Z,98282.12
2019-05-25T19:51:17.503Z,98276.77
2019-05-25T19:53:49.368Z,98270.70
2019-05-25T19:56:20.952Z,98273.72
2019-05-25T19:58:52.424Z,98273.72
2019-05-25T20:01:27.158Z,98260.52
2019-05-25T20:03:59.127Z,98264.27
2019-05-25T20:06:30.764Z,98259.97
2019-05-25T20:09:02.433Z,98251.22
2019-05-25T20:11:34.322Z,98252.30
2019-05-25T20:14:06.382Z,98252.30
2019-05-25T20:16:38.124Z,98245.45
2019-05-25T20:19:09.815Z,98247.30
2019-05-25T20:21:41.417Z,98247.30
2019-05-25T20:24:13.477Z,98246.35
2019-05-25T20:26:44.886Z,98233.63
2019-05-25T20:29:16.789Z,98233.63
2019-05-25T20:31:48.267Z,98235.84
2019-05-25T20:34:19.974Z,98235.36
2019-05-25T20:36:51.605Z,98235.36
2019-05-25T20:39:23.343Z,98227.13
2019-05-25T20:41:55.272Z,98226.33
2019-05-25T20:44:26.819Z,98226.83
2019-05-25T20:46:59.708Z,98226.83
2019-05-25T20:49:31.089Z,98215.98
2019-05-25T20:52:02.505Z,98222.06
2019-05-25T20:54:34.014Z,98224.87
2019-05-25T20:57:05.477Z,98214.36
2019-05-25T20:59:36.723Z,98214.36
2019-05-25T21:02:08.502Z,98221.69
2019-05-25T21:04:39.895Z,98222.48
2019-05-25T21:07:11.188Z,98229.47
2019-05-25T21:09:42.539Z,98229.47
2019-05-25T21:12:14.139Z,98228.05
2019-05-25T21:14:45.655Z,98228.05
2019-05-25T21:17:17.074Z,98219.52
2019-05-25T21:19:48.386Z,98223.80
2019-05-25T21:22:20.073Z,98227.53
2019-05-25T21:24:51.458Z,98227.53
2019-05-25T21:27:23.220Z,98231.23
2019-05-25T21:29:55.143Z,98243.02
2019-05-25T21:32:26.923Z,98246.70
2019-05-25T21:34:58.335Z,98251.25
2019-05-25T21:37:29.597Z,98250.39
2019-05-25T21:40:01.144Z,98250.39
2019-05-25T21:42:32.967Z,98256.68
2019-05-25T21:45:04.794Z,98255.85
2019-05-25T21:47:36.208Z,98258.96
2019-05-25T21:50:08.482Z,98258.96
2019-05-25T21:52:39.710Z,98257.06
2019-05-25T21:55:11.564Z,98258.31
2019-05-25T21:57:43.001Z,98258.31
2019-05-25T22:00:16.872Z,98250.06
2019-05-25T22:02:50.103Z,98251.22
2019-05-25T22:05:21.879Z,98255.16
2019-05-25T22:07:53.347Z,98255.16
2019-05-25T22:10:25.057Z,98257.30
2019-05-25T22:12:58.857Z,98256.48
2019-05-25T22:15:30.489Z,98253.05
2019-05-25T22:18:02.342Z,98255.73
2019-05-25T22:20:33.878Z,98254.81
2019-05-25T22:23:05.343Z,98259.72
2019-05-25T22:25:37.178Z,98256.81
2019-05-25T22:28:08.642Z,98264.54
2019-05-25T22:30:40.498Z,98262.26
2019-05-25T22:33:11.932Z,98262.26
2019-05-25T22:35:43.572Z,98273.56
2019-05-25T22:38:15.111Z,98274.41
2019-05-25T22:40:46.966Z,98271.73
2019-05-25T22:43:18.599Z,98271.73
2019-05-25T22:45:50.300Z,98268.17
2019-05-25T22:48:21.690Z,98272.74
2019-05-25T22:50:53.010Z,98272.74
2019-05-25T22:53:24.789Z,98274.44
2019-05-25T22:55:56.123Z,98279.48
2019-05-25T22:58:27.566Z,98279.48
2019-05-25T23:00:59.122Z,98274.50
2019-05-25T23:03:30.827Z,98291.77
2019-05-25T23:06:02.625Z,98291.77
2019-05-25T23:08:33.989Z,98292.17
2019-05-25T23:11:06.184Z,98298.01
2019-05-25T23:13:37.614Z,98298.79
2019-05-25T23:16:10.927Z,98307.11
2019-05-25T23:18:43.073Z,98311.21
2019-05-25T23:21:14.749Z,98317.26
2019-05-25T23:23:46.604Z,98317.47
2019-05-25T23:26:18.096Z,98328.12
2019-05-25T23:28:49.622Z,98326.11
2019-05-25T23:31:21.312Z,98338.17
2019-05-25T23:33:52.729Z,98332.69
2019-05-25T23:36:24.090Z,98332.02
2019-05-25T23:38:55.470Z,98332.02
2019-05-25T23:41:26.986Z,98333.52
2019-05-25T23:44:01.440Z,98345.16
2019-05-25T23:46:32.883Z,98345.16
2019-05-25T23:49:04.638Z,98348.27
2019-05-25T23:51:36.259Z,98349.95
2019-05-25T23:54:07.786Z,98349.95
2019-05-25T23:56:39.558Z,98360.92
2019-05-25T23:59:11.109Z,98360.92
